createdAt,value
2023-05-14T00:01:58.865Z,13.91
2023-05-14T00:04:26.468Z,13.81
2023-05-14T00:06:53.964Z,13.79
2023-05-14T00:09:21.491Z,13.77
2023-05-14T00:11:49.192Z,13.76
2023-05-14T00:14:16.743Z,13.80
2023-05-14T00:16:44.365Z,13.74
2023-05-14T00:19:12.017Z,13.75
2023-05-14T00:21:39.589Z,13.67
2023-05-14T00:24:07.274Z,13.70
2023-05-14T00:26:34.848Z,13.64
2023-05-14T00:29:02.310Z,13.59
2023-05-14T00:31:29.847Z,13.57
2023-05-14T00:33:57.452Z,13.50
2023-05-14T00:36:24.956Z,13.58
2023-05-14T00:38:52.586Z,13.44
2023-05-14T00:41:20.092Z,13.44
2023-05-14T00:43:47.605Z,13.57
2023-05-14T00:46:15.799Z,13.37
2023-05-14T00:48:43.411Z,13.36
2023-05-14T00:51:11.054Z,13.38
2023-05-14T00:53:38.752Z,13.33
2023-05-14T00:56:06.983Z,13.25
2023-05-14T00:58:34.523Z,13.35
2023-05-14T01:01:02.097Z,13.25
2023-05-14T01:03:31.811Z,13.29
2023-05-14T01:06:14.510Z,13.32
2023-05-14T01:08:51.213Z,13.35
2023-05-14T01:11:25.769Z,13.29
2023-05-14T01:14:09.975Z,13.15
2023-05-14T01:16:39.282Z,13.13
2023-05-14T01:19:11.663Z,13.22
2023-05-14T01:21:44.443Z,13.25
2023-05-14T01:24:11.920Z,13.27
2023-05-14T01:26:39.468Z,13.11
2023-05-14T01:29:10.032Z,13.10
2023-05-14T01:31:41.727Z,13.10
2023-05-14T01:34:10.078Z,13.08
2023-05-14T01:36:38.108Z,13.09
2023-05-14T01:39:09.449Z,13.06
2023-05-14T01:41:39.332Z,13.12
2023-05-14T01:44:07.123Z,13.12
2023-05-14T01:46:34.728Z,13.12
2023-05-14T01:49:02.263Z,13.12
2023-05-14T01:51:29.935Z,13.04
2023-05-14T01:53:57.551Z,12.98
2023-05-14T01:56:25.554Z,12.97
2023-05-14T01:58:53.308Z,12.91
2023-05-14T02:01:20.828Z,12.90
2023-05-14T02:03:48.452Z,12.93
2023-05-14T02:06:15.929Z,12.97
2023-05-14T02:08:43.474Z,12.99
2023-05-14T02:11:10.951Z,13.10
2023-05-14T02:13:38.502Z,13.12
2023-05-14T02:16:06.635Z,13.09
2023-05-14T02:18:34.313Z,13.00
2023-05-14T02:21:01.999Z,13.10
2023-05-14T02:23:40.481Z,13.01
2023-05-14T02:26:10.779Z,13.01
2023-05-14T02:28:38.436Z,12.87
2023-05-14T02:31:06.063Z,12.77
2023-05-14T02:33:33.811Z,12.87
2023-05-14T02:36:01.316Z,12.97
2023-05-14T02:38:28.797Z,12.95
2023-05-14T02:40:56.265Z,12.92
2023-05-14T02:43:23.782Z,12.90
2023-05-14T02:45:51.291Z,12.80
2023-05-14T02:48:18.768Z,12.75
2023-05-14T02:50:46.903Z,12.80
2023-05-14T02:53:14.387Z,12.71
2023-05-14T02:55:41.901Z,12.79
2023-05-14T02:58:10.298Z,12.69
2023-05-14T03:00:37.962Z,12.64
2023-05-14T03:03:06.164Z,12.65
2023-05-14T03:05:34.194Z,12.64
2023-05-14T03:08:01.910Z,12.62
2023-05-14T03:10:29.403Z,12.52
2023-05-14T03:12:56.905Z,12.59
2023-05-14T03:15:24.438Z,12.60
2023-05-14T03:17:52.074Z,12.53
2023-05-14T03:20:19.697Z,12.64
2023-05-14T03:22:47.322Z,12.51
2023-05-14T03:25:14.864Z,12.57
2023-05-14T03:27:42.409Z,12.62
2023-05-14T03:30:11.747Z,12.60
2023-05-14T03:32:39.316Z,12.67
2023-05-14T03:35:07.951Z,12.74
2023-05-14T03:37:35.464Z,12.77
2023-05-14T03:40:03.003Z,12.77
2023-05-14T03:42:30.544Z,12.75
2023-05-14T03:44:58.135Z,12.75
2023-05-14T03:47:25.697Z,12.85
2023-05-14T03:49:53.578Z,12.81
2023-05-14T03:52:21.029Z,12.83
2023-05-14T03:54:48.584Z,12.51
2023-05-14T03:57:16.124Z,12.52
2023-05-14T03:59:43.592Z,12.45
2023-05-14T04:02:11.129Z,12.35
2023-05-14T04:04:38.691Z,12.50
2023-05-14T04:07:06.218Z,12.47
2023-05-14T04:09:33.777Z,12.36
2023-05-14T04:12:01.370Z,12.31
2023-05-14T04:14:28.888Z,12.38
2023-05-14T04:16:56.385Z,12.43
2023-05-14T04:19:23.845Z,12.40
2023-05-14T04:21:51.460Z,12.30
2023-05-14T04:24:19.056Z,12.29
2023-05-14T04:26:46.618Z,12.27
2023-05-14T04:29:14.080Z,12.42
2023-05-14T04:31:42.107Z,12.36
2023-05-14T04:34:09.825Z,12.38
2023-05-14T04:36:37.323Z,12.62
2023-05-14T04:39:06.022Z,12.51
2023-05-14T04:41:33.957Z,12.49
2023-05-14T04:44:02.393Z,12.52
2023-05-14T04:46:29.973Z,12.62
2023-05-14T04:48:57.702Z,12.56
2023-05-14T04:51:26.376Z,12.53
2023-05-14T04:53:53.949Z,12.56
2023-05-14T04:56:21.584Z,12.76
2023-05-14T04:58:49.263Z,12.63
2023-05-14T05:01:16.905Z,12.81
2023-05-14T05:03:44.585Z,12.78
2023-05-14T05:06:12.315Z,12.84
2023-05-14T05:08:39.841Z,12.89
2023-05-14T05:11:07.299Z,12.92
2023-05-14T05:13:34.801Z,12.96
2023-05-14T05:16:02.543Z,13.09
2023-05-14T05:18:30.290Z,13.32
2023-05-14T05:20:57.867Z,13.44
2023-05-14T05:23:25.456Z,13.58
2023-05-14T05:25:53.078Z,13.60
2023-05-14T05:28:20.763Z,13.68
2023-05-14T05:30:48.451Z,13.81
2023-05-14T05:33:16.020Z,13.89
2023-05-14T05:35:44.558Z,14.01
2023-05-14T05:38:12.065Z,14.04
2023-05-14T05:40:39.668Z,14.03
2023-05-14T05:43:07.190Z,13.76
2023-05-14T05:45:34.720Z,13.90
2023-05-14T05:48:02.277Z,13.87
2023-05-14T05:50:29.797Z,14.04
2023-05-14T05:52:59.159Z,13.99
2023-05-14T05:55:26.923Z,13.89
2023-05-14T05:57:54.519Z,13.78
2023-05-14T06:02:50.107Z,14.10
2023-05-14T06:05:18.140Z,14.21
2023-05-14T06:07:45.733Z,14.40
2023-05-14T06:10:13.172Z,14.25
2023-05-14T06:12:40.850Z,14.38
2023-05-14T06:15:08.830Z,14.43
2023-05-14T06:17:36.362Z,14.54
2023-05-14T06:20:05.510Z,14.64
2023-05-14T06:22:33.040Z,14.69
2023-05-14T06:25:00.562Z,15.04
2023-05-14T06:27:28.137Z,15.22
2023-05-14T06:29:55.888Z,15.01
2023-05-14T06:32:23.670Z,14.93
2023-05-14T06:34:51.243Z,15.25
2023-05-14T06:37:18.717Z,15.49
2023-05-14T06:39:50.159Z,15.64
2023-05-14T06:42:18.974Z,15.69
2023-05-14T06:44:46.824Z,15.53
2023-05-14T06:47:14.404Z,16.12
2023-05-14T06:49:41.908Z,15.80
2023-05-14T06:52:09.476Z,16.20
2023-05-14T06:54:36.978Z,15.94
2023-05-14T06:57:04.723Z,16.08
2023-05-14T06:59:32.449Z,16.23
2023-05-14T07:02:00.014Z,16.30
2023-05-14T07:04:27.670Z,16.19
2023-05-14T07:06:55.179Z,16.73
2023-05-14T07:09:23.040Z,16.43
2023-05-14T07:11:50.498Z,16.77
2023-05-14T07:14:18.024Z,17.06
2023-05-14T07:16:46.896Z,16.85
2023-05-14T07:19:14.637Z,16.78
2023-05-14T07:21:42.370Z,16.47
2023-05-14T07:24:10.208Z,16.60
2023-05-14T07:26:37.859Z,16.75
2023-05-14T07:29:05.388Z,17.00
2023-05-14T07:31:33.284Z,16.41
2023-05-14T07:34:00.852Z,16.55
2023-05-14T07:36:28.447Z,16.53
2023-05-14T07:38:56.169Z,16.79
2023-05-14T07:41:23.689Z,16.87
2023-05-14T07:43:51.303Z,16.90
2023-05-14T07:46:19.451Z,16.59
2023-05-14T07:48:46.936Z,16.76
2023-05-14T07:51:14.457Z,16.97
2023-05-14T07:53:42.003Z,17.12
2023-05-14T07:56:09.496Z,16.67
2023-05-14T07:58:37.102Z,17.00
2023-05-14T08:01:07.206Z,16.91
2023-05-14T08:03:34.876Z,17.17
2023-05-14T08:06:02.487Z,17.51
2023-05-14T08:08:29.959Z,17.80
2023-05-14T08:10:57.453Z,17.64
2023-05-14T08:13:24.927Z,17.62
2023-05-14T08:15:52.590Z,17.58
2023-05-14T08:18:20.053Z,17.28
2023-05-14T08:20:48.307Z,17.37
2023-05-14T08:23:15.804Z,17.32
2023-05-14T08:25:43.397Z,17.97
2023-05-14T08:28:10.964Z,18.10
2023-05-14T08:30:38.559Z,18.32
2023-05-14T08:33:06.137Z,18.10
2023-05-14T08:35:33.626Z,18.66
2023-05-14T08:38:01.732Z,19.26
2023-05-14T08:40:29.468Z,18.86
2023-05-14T08:42:58.229Z,18.48
2023-05-14T08:45:33.822Z,18.50
2023-05-14T08:48:02.260Z,19.44
2023-05-14T08:50:31.253Z,19.61
2023-05-14T08:52:58.902Z,19.48
2023-05-14T08:55:28.169Z,19.64
2023-05-14T08:57:56.204Z,19.65
2023-05-14T09:00:24.981Z,20.00
2023-05-14T09:02:53.935Z,19.67
2023-05-14T09:05:22.090Z,19.85
2023-05-14T09:07:49.594Z,20.10
2023-05-14T09:10:18.482Z,20.58
2023-05-14T09:12:46.073Z,20.13
2023-05-14T09:15:13.978Z,20.55
2023-05-14T09:17:41.727Z,20.17
2023-05-14T09:20:10.487Z,20.42
2023-05-14T09:22:39.603Z,20.48
2023-05-14T09:25:12.213Z,20.59
2023-05-14T09:27:40.129Z,20.62
2023-05-14T09:30:12.076Z,21.19
2023-05-14T09:32:40.767Z,21.46
2023-05-14T09:35:17.399Z,21.47
2023-05-14T09:37:50.176Z,20.87
2023-05-14T09:40:19.319Z,21.08
2023-05-14T09:42:48.237Z,21.26
2023-05-14T09:45:16.649Z,21.03
2023-05-14T09:47:45.146Z,21.58
2023-05-14T09:50:13.254Z,21.05
2023-05-14T09:52:41.083Z,20.98
2023-05-14T09:55:09.103Z,21.02
2023-05-14T09:57:37.201Z,22.05
2023-05-14T10:00:05.255Z,22.01
2023-05-14T10:02:41.142Z,21.71
2023-05-14T10:05:09.672Z,21.47
2023-05-14T10:07:43.882Z,22.01
2023-05-14T10:10:16.407Z,22.03
2023-05-14T10:12:47.363Z,22.40
2023-05-14T10:15:20.741Z,22.49
2023-05-14T10:17:55.711Z,21.79
2023-05-14T10:20:24.433Z,22.05
2023-05-14T10:22:52.487Z,22.10
2023-05-14T10:25:20.818Z,21.77
2023-05-14T10:27:48.763Z,22.16
2023-05-14T10:30:16.387Z,22.52
2023-05-14T10:32:44.252Z,22.63
2023-05-14T10:35:25.328Z,22.81
2023-05-14T10:37:52.876Z,22.86
2023-05-14T10:40:21.401Z,22.80
2023-05-14T10:42:49.898Z,22.71
2023-05-14T10:45:17.878Z,23.12
2023-05-14T10:47:47.550Z,22.97
2023-05-14T10:50:17.514Z,23.03
2023-05-14T10:52:46.712Z,24.31
2023-05-14T10:55:16.117Z,22.81
2023-05-14T10:57:46.409Z,22.95
2023-05-14T11:00:15.775Z,23.25
2023-05-14T11:02:45.768Z,23.22
2023-05-14T11:05:18.095Z,23.13
2023-05-14T11:07:48.717Z,23.54
2023-05-14T11:10:17.271Z,23.79
2023-05-14T11:12:47.731Z,23.13
2023-05-14T11:15:17.793Z,23.85
2023-05-14T11:17:47.166Z,23.19
2023-05-14T11:20:16.629Z,23.33
2023-05-14T11:22:45.941Z,23.30
2023-05-14T11:25:15.002Z,23.11
2023-05-14T11:27:44.826Z,23.70
2023-05-14T11:30:21.550Z,23.05
2023-05-14T11:32:50.334Z,23.58
2023-05-14T11:35:18.874Z,23.64
2023-05-14T11:37:52.564Z,23.35
2023-05-14T11:40:20.500Z,22.93
2023-05-14T11:42:48.006Z,22.92
2023-05-14T11:45:26.284Z,23.93
2023-05-14T11:47:54.571Z,24.23
2023-05-14T11:50:23.649Z,23.44
2023-05-14T11:52:51.601Z,23.96
2023-05-14T11:55:19.141Z,24.18
2023-05-14T11:57:46.838Z,23.74
2023-05-14T12:00:21.323Z,24.24
2023-05-14T12:02:50.190Z,24.09
2023-05-14T12:05:18.174Z,24.84
2023-05-14T12:07:46.507Z,24.08
2023-05-14T12:10:14.309Z,23.64
2023-05-14T12:12:41.860Z,24.33
2023-05-14T12:15:13.826Z,24.97
2023-05-14T12:17:41.551Z,25.38
2023-05-14T12:20:11.706Z,23.50
2023-05-14T12:22:39.898Z,23.49
2023-05-14T12:25:14.386Z,24.46
2023-05-14T12:27:45.431Z,25.16
2023-05-14T12:32:48.953Z,23.91
2023-05-14T12:35:16.654Z,23.50
2023-05-14T12:37:44.221Z,23.72
2023-05-14T12:40:12.156Z,24.78
2023-05-14T12:42:39.753Z,24.82
2023-05-14T12:45:08.532Z,25.22
2023-05-14T12:47:37.289Z,25.21
2023-05-14T12:50:05.947Z,24.86
2023-05-14T12:52:38.426Z,24.41
2023-05-14T12:55:07.621Z,24.41
2023-05-14T12:57:35.631Z,24.67
2023-05-14T13:00:06.376Z,25.58
2023-05-14T13:02:42.359Z,26.15
2023-05-14T13:05:11.490Z,24.60
2023-05-14T13:07:39.548Z,24.48
2023-05-14T13:10:07.535Z,24.61
2023-05-14T13:12:35.308Z,24.52
2023-05-14T13:15:02.987Z,24.32
2023-05-14T13:17:30.636Z,24.45
2023-05-14T13:19:58.272Z,23.71
2023-05-14T13:22:25.834Z,24.01
2023-05-14T13:24:53.344Z,24.69
2023-05-14T13:27:20.844Z,24.46
2023-05-14T13:29:48.388Z,24.86
2023-05-14T13:32:15.846Z,24.87
2023-05-14T13:34:44.013Z,25.09
2023-05-14T13:37:11.963Z,25.46
2023-05-14T13:39:41.066Z,25.09
2023-05-14T13:42:08.920Z,24.59
2023-05-14T13:44:36.829Z,24.71
2023-05-14T13:47:04.514Z,24.76
2023-05-14T13:49:32.019Z,24.49
2023-05-14T13:52:00.773Z,25.17
2023-05-14T13:54:28.279Z,24.43
2023-05-14T13:56:56.124Z,23.57
2023-05-14T13:59:23.964Z,23.91
2023-05-14T14:01:51.724Z,24.71
2023-05-14T14:04:19.971Z,24.61
2023-05-14T14:06:47.518Z,24.65
2023-05-14T14:09:15.131Z,24.08
2023-05-14T14:11:42.625Z,24.03
2023-05-14T14:14:10.090Z,24.34
2023-05-14T14:16:37.642Z,24.03
2023-05-14T14:19:05.510Z,23.76
2023-05-14T14:21:34.067Z,23.73
2023-05-14T14:24:01.924Z,23.98
2023-05-14T14:26:29.531Z,24.66
2023-05-14T14:28:57.182Z,24.45
2023-05-14T14:31:25.084Z,24.00
2023-05-14T14:33:52.706Z,23.90
2023-05-14T14:36:20.316Z,23.80
2023-05-14T14:38:47.923Z,23.57
2023-05-14T14:41:15.562Z,23.38
2023-05-14T14:43:43.536Z,23.42
2023-05-14T14:46:11.258Z,22.65
2023-05-14T14:48:38.811Z,22.90
2023-05-14T14:51:07.921Z,22.61
2023-05-14T14:53:36.358Z,22.29
2023-05-14T14:56:04.075Z,22.04
2023-05-14T14:58:32.052Z,21.95
2023-05-14T15:00:59.674Z,22.18
2023-05-14T15:03:27.379Z,21.86
2023-05-14T15:05:54.930Z,21.95
2023-05-14T15:08:27.412Z,22.07
2023-05-14T15:10:59.438Z,22.08
2023-05-14T15:13:27.140Z,22.41
2023-05-14T15:15:54.801Z,21.65
2023-05-14T15:18:22.325Z,22.02
2023-05-14T15:20:52.809Z,21.74
2023-05-14T15:23:20.439Z,21.52
2023-05-14T15:25:49.186Z,21.78
2023-05-14T15:28:16.924Z,21.83
2023-05-14T15:30:44.587Z,21.74
2023-05-14T15:33:12.320Z,21.31
2023-05-14T15:35:39.953Z,21.68
2023-05-14T15:38:07.976Z,21.28
2023-05-14T15:40:35.645Z,21.50
2023-05-14T15:43:03.272Z,21.98
2023-05-14T15:45:30.991Z,21.83
2023-05-14T15:47:58.533Z,22.10
2023-05-14T15:50:27.407Z,21.63
2023-05-14T15:52:55.300Z,21.52
2023-05-14T15:55:23.038Z,21.57
2023-05-14T15:57:50.611Z,22.09
2023-05-14T16:00:18.422Z,21.79
2023-05-14T16:02:46.083Z,21.64
2023-05-14T16:05:15.002Z,21.59
2023-05-14T16:07:43.533Z,21.27
2023-05-14T16:10:11.489Z,21.65
2023-05-14T16:12:39.064Z,21.69
2023-05-14T16:15:08.200Z,21.81
2023-05-14T16:17:35.965Z,21.79
2023-05-14T16:20:04.746Z,21.30
2023-05-14T16:22:34.668Z,21.43
2023-05-14T16:25:03.519Z,20.93
2023-05-14T16:27:31.661Z,20.95
2023-05-14T16:29:59.180Z,20.99
2023-05-14T16:32:27.649Z,20.73
2023-05-14T16:34:56.550Z,21.01
2023-05-14T16:37:24.179Z,20.55
2023-05-14T16:39:51.734Z,20.83
2023-05-14T16:42:19.244Z,20.71
2023-05-14T16:44:46.704Z,20.70
2023-05-14T16:47:14.176Z,20.80
2023-05-14T16:49:41.686Z,20.50
2023-05-14T16:52:09.229Z,20.18
2023-05-14T16:54:36.968Z,20.83
2023-05-14T16:57:04.656Z,20.44
2023-05-14T16:59:32.291Z,20.23
2023-05-14T17:02:01.034Z,20.32
2023-05-14T17:04:28.944Z,20.15
2023-05-14T17:06:57.348Z,19.94
2023-05-14T17:09:24.887Z,19.89
2023-05-14T17:11:52.474Z,20.04
2023-05-14T17:14:20.007Z,19.71
2023-05-14T17:16:47.473Z,19.53
2023-05-14T17:19:15.048Z,19.43
2023-05-14T17:21:42.601Z,19.21
2023-05-14T17:24:10.099Z,19.68
2023-05-14T17:26:37.869Z,19.46
2023-05-14T17:29:05.554Z,19.46
2023-05-14T17:31:33.138Z,19.34
2023-05-14T17:34:00.716Z,18.63
2023-05-14T17:36:28.629Z,18.47
2023-05-14T17:38:56.318Z,18.31
2023-05-14T17:41:23.851Z,18.19
2023-05-14T17:43:52.399Z,18.27
2023-05-14T17:46:20.100Z,18.33
2023-05-14T17:48:47.637Z,17.91
2023-05-14T17:51:15.225Z,17.98
2023-05-14T17:53:42.686Z,18.11
2023-05-14T17:56:10.283Z,17.99
2023-05-14T17:58:37.816Z,17.80
2023-05-14T18:01:05.961Z,17.63
2023-05-14T18:03:33.940Z,17.70
2023-05-14T18:06:01.602Z,17.44
2023-05-14T18:08:29.121Z,17.71
2023-05-14T18:10:58.065Z,17.45
2023-05-14T18:13:25.679Z,17.57
2023-05-14T18:15:54.373Z,17.38
2023-05-14T18:18:23.993Z,17.06
2023-05-14T18:20:52.673Z,16.94
2023-05-14T18:23:20.247Z,16.98
2023-05-14T18:25:47.930Z,16.96
2023-05-14T18:28:15.651Z,16.73
2023-05-14T18:30:43.529Z,16.49
2023-05-14T18:33:11.209Z,16.72
2023-05-14T18:35:38.836Z,16.75
2023-05-14T18:38:07.900Z,16.43
2023-05-14T18:40:35.538Z,16.56
2023-05-14T18:43:03.088Z,16.28
2023-05-14T18:45:30.688Z,16.12
2023-05-14T18:47:58.440Z,16.05
2023-05-14T18:50:25.919Z,15.95
2023-05-14T18:52:53.564Z,15.79
2023-05-14T18:55:21.140Z,15.81
2023-05-14T18:57:48.722Z,15.79
2023-05-14T19:00:16.870Z,15.95
2023-05-14T19:02:44.496Z,15.83
2023-05-14T19:05:12.139Z,15.78
2023-05-14T19:07:40.740Z,15.88
2023-05-14T19:10:08.947Z,15.59
2023-05-14T19:12:36.465Z,15.37
2023-05-14T19:15:04.485Z,15.39
2023-05-14T19:17:32.801Z,15.53
2023-05-14T19:20:00.618Z,15.45
2023-05-14T19:22:28.075Z,15.50
2023-05-14T19:24:55.609Z,15.39
2023-05-14T19:27:24.217Z,15.29
2023-05-14T19:29:51.786Z,15.12
2023-05-14T19:32:19.453Z,15.07
2023-05-14T19:34:47.681Z,15.23
2023-05-14T19:37:15.935Z,15.28
2023-05-14T19:39:43.484Z,15.09
2023-05-14T19:42:11.006Z,14.96
2023-05-14T19:44:38.666Z,15.02
2023-05-14T19:47:06.601Z,15.01
2023-05-14T19:49:34.126Z,14.94
2023-05-14T19:52:01.673Z,14.96
2023-05-14T19:54:29.248Z,14.75
2023-05-14T19:56:56.790Z,14.72
2023-05-14T19:59:24.882Z,14.68
2023-05-14T20:01:54.510Z,14.67
2023-05-14T20:04:22.283Z,14.66
2023-05-14T20:06:49.732Z,14.61
2023-05-14T20:09:17.317Z,14.70
2023-05-14T20:11:44.777Z,14.57
2023-05-14T20:14:12.299Z,14.65
2023-05-14T20:16:39.994Z,14.54
2023-05-14T20:19:07.685Z,14.43
2023-05-14T20:21:35.254Z,14.31
2023-05-14T20:24:02.836Z,14.44
2023-05-14T20:26:30.306Z,14.45
2023-05-14T20:28:57.826Z,14.48
2023-05-14T20:31:25.387Z,14.42
2023-05-14T20:33:52.928Z,14.28
2023-05-14T20:36:20.525Z,14.18
2023-05-14T20:38:48.375Z,14.25
2023-05-14T20:41:16.091Z,14.29
2023-05-14T20:43:43.539Z,14.22
2023-05-14T20:46:11.163Z,14.18
2023-05-14T20:48:38.679Z,14.28
2023-05-14T20:51:06.527Z,14.20
2023-05-14T20:53:34.386Z,14.17
2023-05-14T20:56:02.123Z,14.14
2023-05-14T20:58:29.682Z,14.22
2023-05-14T21:00:58.650Z,14.12
2023-05-14T21:03:27.410Z,14.07
2023-05-14T21:05:56.702Z,14.01
2023-05-14T21:08:24.223Z,14.16
2023-05-14T21:10:51.696Z,14.20
2023-05-14T21:13:19.244Z,14.01
2023-05-14T21:15:47.048Z,13.95
2023-05-14T21:18:14.585Z,13.97
2023-05-14T21:20:42.286Z,13.97
2023-05-14T21:23:09.872Z,13.96
2023-05-14T21:25:37.570Z,13.92
2023-05-14T21:28:05.125Z,13.91
2023-05-14T21:30:32.573Z,13.91
2023-05-14T21:33:00.263Z,13.78
2023-05-14T21:35:27.880Z,13.73
2023-05-14T21:37:55.492Z,13.75
2023-05-14T21:40:22.984Z,13.67
2023-05-14T21:42:50.918Z,13.74
2023-05-14T21:45:18.527Z,13.63
2023-05-14T21:47:46.095Z,13.65
2023-05-14T21:50:13.753Z,13.62
2023-05-14T21:52:41.575Z,13.62
2023-05-14T21:55:09.533Z,13.66
2023-05-14T21:57:37.248Z,13.54
2023-05-14T22:00:08.119Z,13.62
2023-05-14T22:02:35.646Z,13.59
2023-05-14T22:05:03.151Z,13.60
2023-05-14T22:07:31.196Z,13.53
2023-05-14T22:09:58.779Z,13.63
2023-05-14T22:12:26.848Z,13.62
2023-05-14T22:14:54.354Z,13.57
2023-05-14T22:17:22.621Z,13.64
2023-05-14T22:19:50.273Z,13.68
2023-05-14T22:22:17.790Z,13.42
2023-05-14T22:24:45.489Z,13.51
2023-05-14T22:27:12.971Z,13.42
2023-05-14T22:29:41.053Z,13.46
2023-05-14T22:32:10.137Z,13.29
2023-05-14T22:34:38.561Z,13.39
2023-05-14T22:37:06.452Z,13.43
2023-05-14T22:39:33.935Z,13.41
2023-05-14T22:42:01.489Z,13.40
2023-05-14T22:44:30.004Z,13.38
2023-05-14T22:46:57.862Z,13.40
2023-05-14T22:49:25.409Z,13.37
2023-05-14T22:51:54.198Z,13.39
2023-05-14T22:54:22.301Z,13.42
2023-05-14T22:56:49.917Z,13.33
2023-05-14T22:59:17.453Z,13.39
2023-05-14T23:01:45.235Z,13.35
2023-05-14T23:04:13.020Z,13.41
2023-05-14T23:06:40.555Z,13.35
2023-05-14T23:09:08.059Z,13.33
2023-05-14T23:11:35.586Z,13.26
2023-05-14T23:14:03.109Z,13.30
2023-05-14T23:16:30.660Z,13.28
2023-05-14T23:18:58.321Z,13.36
2023-05-14T23:21:26.048Z,13.33
2023-05-14T23:23:53.594Z,13.39
2023-05-14T23:26:21.518Z,13.36
2023-05-14T23:28:49.069Z,13.34
2023-05-14T23:31:16.638Z,13.39
2023-05-14T23:33:45.005Z,13.45
2023-05-14T23:36:12.562Z,13.31
2023-05-14T23:38:40.643Z,13.38
2023-05-14T23:41:08.293Z,13.38
2023-05-14T23:43:36.004Z,13.25
2023-05-14T23:46:03.953Z,13.30
2023-05-14T23:48:31.759Z,13.34
2023-05-14T23:50:59.327Z,13.25
2023-05-14T23:53:26.925Z,13.26
2023-05-14T23:55:54.442Z,13.24
2023-05-14T23:58:22.048Z,13.20
